Time;durP1;ratioP1;P1;durP2;ratioP2;P2;SDS_P1;SDS_P2;PMS_P1;PMS_P2;Temp;Humidity;BMP_temperature;BMP_pressure;BME280_temperature;BME280_humidity;BME280_pressure;Samples;Min_cycle;Max_cycle;Signal;HPM_P1;HPM_P2
2023/05/15 00:04:03;;;;;;;14.15;12.73;;;;;;;12.20;86.67;100153.03;10087340;29;20108;-77
2023/05/15 00:09:08;;;;;;;13.77;12.05;;;;;;;12.12;86.25;100146.53;10086677;29;20045;-77
2023/05/15 00:14:11;;;;;;;15.15;13.60;;;;;;;12.02;85.22;100147.50;10087181;29;20214;-77
2023/05/15 00:19:13;;;;;;;16.88;12.30;;;;;;;11.59;84.36;100149.50;10087108;29;20144;-76
2023/05/15 00:24:18;;;;;;;13.40;11.52;;;;;;;11.42;85.24;100136.72;10085078;29;20187;-76
2023/05/15 00:29:21;;;;;;;14.55;11.02;;;;;;;11.61;85.74;100138.63;10088854;29;20049;-76
2023/05/15 00:34:24;;;;;;;13.70;12.25;;;;;;;11.62;84.82;100138.47;10087727;29;20066;-76
2023/05/15 00:39:28;;;;;;;14.48;12.82;;;;;;;11.63;85.14;100133.97;10088218;29;20055;-76
2023/05/15 00:44:32;;;;;;;14.40;12.88;;;;;;;11.69;85.00;100130.72;10084204;29;20135;-76
2023/05/15 00:49:36;;;;;;;19.52;14.82;;;;;;;11.77;85.90;100132.72;10084200;29;20068;-76
2023/05/15 00:54:40;;;;;;;15.63;13.40;;;;;;;11.69;84.69;100125.34;10084262;29;20041;-76
2023/05/15 00:59:46;;;;;;;12.38;11.05;;;;;;;11.50;85.26;100118.91;10088996;29;20560;-76
2023/05/15 01:04:49;;;;;;;12.55;11.35;;;;;;;11.60;85.75;100108.19;10085685;29;20085;-76
2023/05/15 01:09:54;;;;;;;12.20;10.93;;;;;;;11.54;85.23;100113.25;10087460;29;20056;-76
2023/05/15 01:14:57;;;;;;;19.48;12.02;;;;;;;11.40;82.76;100106.41;10078876;29;20048;-76
2023/05/15 01:20:02;;;;;;;16.00;12.73;;;;;;;11.35;83.37;100104.13;10083170;29;20097;-76
2023/05/15 01:25:57;;;;;;;18.20;12.57;;;;;;;10.52;82.56;100105.09;10084546;29;20613;-76
2023/05/15 01:31:08;;;;;;;12.60;11.40;;;;;;;10.73;84.03;100103.25;10079555;29;20060;-76
2023/05/15 01:36:16;;;;;;;16.27;13.90;;;;;;;10.91;83.91;100099.94;10081356;29;20041;-76
2023/05/15 01:41:29;;;;;;;15.48;13.88;;;;;;;10.91;84.27;100094.56;10080134;29;20417;-76
2023/05/15 01:46:38;;;;;;;15.57;12.52;;;;;;;11.09;84.99;100092.97;10078282;29;20063;-76
2023/05/15 01:51:44;;;;;;;13.98;12.48;;;;;;;11.09;84.29;100086.75;10076053;29;20556;-76
2023/05/15 01:56:47;;;;;;;15.02;13.45;;;;;;;11.11;84.70;100084.75;10078862;29;20097;-76
2023/05/15 02:01:52;;;;;;;16.13;12.50;;;;;;;11.05;84.26;100094.19;10080209;29;20121;-76
2023/05/15 02:06:56;;;;;;;13.20;11.40;;;;;;;11.04;84.02;100089.81;10083353;29;20045;-76
2023/05/15 02:12:00;;;;;;;12.20;11.00;;;;;;;10.95;83.95;100087.94;10081903;29;20057;-76
2023/05/15 02:17:05;;;;;;;13.95;11.68;;;;;;;10.93;83.58;100081.84;10086615;29;20052;-76
2023/05/15 02:22:09;;;;;;;13.98;12.48;;;;;;;10.75;83.01;100085.16;10084449;29;20089;-75
2023/05/15 02:27:17;;;;;;;82.88;19.77;;;;;;;10.46;81.52;100076.06;10092595;29;20092;-76
2023/05/15 02:32:28;;;;;;;15.38;13.77;;;;;;;10.26;82.54;100067.88;10087392;29;20041;-76
2023/05/15 02:37:34;;;;;;;23.02;15.25;;;;;;;10.42;83.91;100072.78;10087381;29;20075;-76
2023/05/15 02:42:38;;;;;;;15.70;13.93;;;;;;;10.51;82.77;100065.78;10089041;29;20390;-76
2023/05/15 02:47:43;;;;;;;13.68;11.75;;;;;;;10.61;83.10;100072.06;10093076;29;20049;-75
2023/05/15 02:52:46;;;;;;;20.92;11.30;;;;;;;10.52;82.24;100062.97;10092318;29;20055;-76
2023/05/15 02:57:49;;;;;;;11.68;10.48;;;;;;;10.51;82.53;100069.31;10098064;29;20846;-76
2023/05/15 03:02:53;;;;;;;11.13;10.13;;;;;;;10.65;82.88;100064.59;10092040;29;20048;-76
2023/05/15 03:07:57;;;;;;;11.40;10.20;;;;;;;10.49;81.06;100060.53;10093196;29;20048;-76
2023/05/15 03:13:00;;;;;;;10.50;9.43;;;;;;;10.53;82.04;100063.81;10099124;29;20061;-76
2023/05/15 03:18:04;;;;;;;11.73;10.57;;;;;;;10.54;82.08;100060.16;10091461;29;20089;-76
2023/05/15 03:23:07;;;;;;;13.45;12.10;;;;;;;10.73;82.17;100060.25;10090083;29;20049;-76
2023/05/15 03:28:10;;;;;;;12.90;11.40;;;;;;;10.64;82.21;100055.69;10096618;29;20061;-76
2023/05/15 03:33:14;;;;;;;16.17;12.50;;;;;;;10.46;80.89;100063.50;10091378;29;20037;-75
2023/05/15 03:38:17;;;;;;;14.60;12.65;;;;;;;9.84;81.42;100062.41;10094809;29;20394;-76
2023/05/15 03:43:20;;;;;;;17.90;12.77;;;;;;;10.07;82.40;100059.69;10089355;29;20045;-75
2023/05/15 03:48:24;;;;;;;14.95;11.55;;;;;;;10.27;82.55;100066.88;10088990;29;20045;-76
2023/05/15 03:53:27;;;;;;;13.00;11.57;;;;;;;10.38;82.48;100074.03;10086167;29;20101;-76
2023/05/15 03:58:30;;;;;;;14.68;12.68;;;;;;;10.45;80.57;100074.34;10087712;29;20045;-76
2023/05/15 04:03:35;;;;;;;17.60;14.32;;;;;;;10.18;80.43;100056.94;10088310;29;20053;-76
2023/05/15 04:08:38;;;;;;;17.75;12.25;;;;;;;9.93;81.26;100066.22;10088725;29;20053;-75
2023/05/15 04:13:42;;;;;;;13.65;12.25;;;;;;;9.92;80.88;100061.81;10087305;29;20052;-76
2023/05/15 04:18:46;;;;;;;15.02;13.43;;;;;;;9.64;80.93;100060.53;10087579;29;20049;-76
2023/05/15 04:23:49;;;;;;;16.17;12.70;;;;;;;9.76;81.60;100058.66;10087900;29;20037;-76
2023/05/15 04:28:52;;;;;;;18.45;14.55;;;;;;;10.21;81.96;100059.38;10085117;29;20056;-75
2023/05/15 04:34:07;;;;;;;14.40;12.55;;;;;;;10.50;82.03;100062.22;10087045;29;20617;-76
2023/05/15 04:39:11;;;;;;;15.38;12.70;;;;;;;10.53;81.11;100063.81;10088072;29;20097;-75
2023/05/15 04:44:14;;;;;;;15.85;12.88;;;;;;;10.64;81.31;100053.00;10086907;29;20494;-75
2023/05/15 04:49:18;;;;;;;14.50;12.68;;;;;;;10.83;81.34;100057.59;10085278;29;20091;-75
2023/05/15 04:54:21;;;;;;;15.00;12.77;;;;;;;10.88;81.19;100057.22;10084760;29;20577;-75
2023/05/15 04:59:24;;;;;;;16.77;12.50;;;;;;;11.01;81.29;100047.09;10086388;29;20052;-75
2023/05/15 05:04:29;;;;;;;14.52;13.02;;;;;;;11.09;81.18;100047.25;10086207;29;20041;-75
2023/05/15 05:09:32;;;;;;;18.77;14.50;;;;;;;11.03;79.90;100051.34;10087173;29;20106;-75
2023/05/15 05:14:35;;;;;;;19.52;17.20;;;;;;;11.09;80.09;100046.44;10087110;29;20109;-75
2023/05/15 05:19:40;;;;;;;17.20;15.18;;;;;;;11.24;80.35;100048.63;10085533;29;20516;-75
2023/05/15 05:24:43;;;;;;;23.08;17.13;;;;;;;11.41;80.53;100039.06;10083695;29;20064;-75
2023/05/15 05:29:46;;;;;;;21.17;17.02;;;;;;;11.48;79.98;100047.41;10086764;29;20128;-75
2023/05/15 05:34:50;;;;;;;22.83;17.88;;;;;;;11.65;79.92;100057.47;10084344;29;20493;-75
2023/05/15 05:39:53;;;;;;;20.88;17.88;;;;;;;11.84;79.86;100056.66;10084189;29;20132;-75
2023/05/15 05:44:56;;;;;;;20.83;16.30;;;;;;;11.99;79.07;100053.56;10081548;29;20073;-75
2023/05/15 05:50:00;;;;;;;21.90;18.08;;;;;;;12.13;79.31;100053.13;10081674;29;20045;-75
2023/05/15 05:55:03;;;;;;;17.63;14.52;;;;;;;12.09;75.38;100057.94;10084619;29;20052;-75
2023/05/15 06:00:09;;;;;;;11.40;9.13;;;;;;;12.03;73.02;100063.03;10079177;29;20498;-75
2023/05/15 06:05:14;;;;;;;13.18;11.80;;;;;;;12.41;74.90;100053.28;10081311;29;20120;-75
2023/05/15 06:10:17;;;;;;;10.35;9.35;;;;;;;12.79;74.27;100047.78;10082171;29;20466;-75
2023/05/15 06:15:20;;;;;;;19.80;10.07;;;;;;;13.27;74.28;100035.97;10083119;29;20121;-76
2023/05/15 06:20:24;;;;;;;13.27;11.75;;;;;;;13.41;70.10;100049.94;10089959;29;20041;-75
2023/05/15 06:25:27;;;;;;;18.75;11.05;;;;;;;13.58;69.28;100037.50;10069202;29;20053;-75
2023/05/15 06:30:30;;;;;;;14.98;13.48;;;;;;;13.66;67.63;100037.59;10055429;29;20117;-76
2023/05/15 06:35:34;;;;;;;19.50;10.90;;;;;;;14.04;68.61;100038.28;10056206;29;20069;-76
2023/05/15 06:40:37;;;;;;;16.90;14.57;;;;;;;13.97;67.17;100035.34;10052788;29;20760;-75
2023/05/15 06:45:40;;;;;;;16.42;14.05;;;;;;;14.09;68.38;100035.97;10050503;29;20065;-75
2023/05/15 06:50:44;;;;;;;17.38;14.70;;;;;;;14.44;68.55;100042.34;10054270;29;20108;-75
2023/05/15 06:55:47;;;;;;;18.23;14.77;;;;;;;14.76;67.89;100050.69;10053065;29;20057;-75
2023/05/15 07:00:50;;;;;;;17.58;15.55;;;;;;;14.76;66.67;100055.25;10050030;29;20056;-75
2023/05/15 07:05:56;;;;;;;19.15;16.60;;;;;;;15.40;66.88;100044.94;10052933;29;20410;-75
2023/05/15 07:10:58;;;;;;;15.77;12.95;;;;;;;15.50;66.66;100053.75;10047822;29;20049;-75
2023/05/15 07:16:02;;;;;;;15.98;14.38;;;;;;;16.07;66.69;100047.59;10047670;29;20049;-75
2023/05/15 07:21:06;;;;;;;16.58;14.85;;;;;;;16.52;65.27;100043.56;10047914;29;20493;-75
2023/05/15 07:26:09;;;;;;;21.13;15.70;;;;;;;16.92;63.09;100034.50;10045189;29;20181;-75
2023/05/15 07:31:21;;;;;;;18.70;15.77;;;;;;;17.39;60.55;100033.66;10046641;29;20057;-75
2023/05/15 07:36:26;;;;;;;17.75;14.02;;;;;;;17.76;55.52;100032.06;10046020;29;20057;-76
2023/05/15 07:41:29;;;;;;;16.63;15.05;;;;;;;18.27;56.22;100034.28;10049815;29;20056;-75
2023/05/15 07:46:33;;;;;;;17.27;15.10;;;;;;;19.38;54.77;100029.88;10052800;29;20709;-75
2023/05/15 07:51:37;;;;;;;15.88;14.20;;;;;;;19.71;50.79;100018.53;10051564;29;20516;-75
2023/05/15 07:56:40;;;;;;;18.33;14.45;;;;;;;19.76;52.04;100022.38;10048926;29;20543;-75
2023/05/15 08:01:43;;;;;;;15.95;13.70;;;;;;;20.07;51.34;100027.50;10045087;29;20067;-75
2023/05/15 08:06:47;;;;;;;15.00;13.50;;;;;;;20.17;50.64;100026.34;10048370;29;20059;-76
2023/05/15 08:11:49;;;;;;;13.13;11.73;;;;;;;20.00;48.75;100018.44;10046101;29;20445;-75
2023/05/15 08:16:52;;;;;;;14.02;12.52;;;;;;;20.24;48.07;100013.59;10038889;29;20052;-75
2023/05/15 08:21:56;;;;;;;13.65;12.18;;;;;;;19.96;48.78;100008.94;10039847;29;20053;-74
2023/05/15 08:26:59;;;;;;;13.73;12.30;;;;;;;20.17;48.14;100010.81;10041012;29;20064;-74
2023/05/15 08:32:02;;;;;;;14.20;12.73;;;;;;;20.29;47.03;100011.97;10043714;29;20501;-75
2023/05/15 08:37:06;;;;;;;16.02;14.43;;;;;;;19.63;49.33;100014.06;10045628;29;20052;-75
2023/05/15 08:42:18;;;;;;;16.13;14.48;;;;;;;20.24;50.06;100014.47;10044328;29;20057;-75
2023/05/15 08:47:22;;;;;;;16.98;14.73;;;;;;;20.86;48.70;100003.81;10046288;29;20049;-75
2023/05/15 08:52:27;;;;;;;19.23;15.65;;;;;;;20.51;49.05;100003.78;10048210;29;20053;-75
2023/05/15 08:57:32;;;;;;;18.20;16.45;;;;;;;20.82;48.99;99994.34;10047120;29;20053;-74
2023/05/15 09:02:36;;;;;;;22.52;16.98;;;;;;;19.40;50.92;99997.84;10049483;29;20049;-74
2023/05/15 09:07:41;;;;;;;19.23;17.23;;;;;;;20.37;49.88;100000.09;10050224;29;20060;-74
2023/05/15 09:12:44;;;;;;;19.10;17.10;;;;;;;20.28;50.66;99988.47;10046978;29;20053;-74
2023/05/15 09:17:48;;;;;;;19.67;17.55;;;;;;;20.87;48.11;99989.97;10048208;29;20053;-74
2023/05/15 09:22:52;;;;;;;19.20;17.23;;;;;;;19.85;50.69;100006.75;10049170;29;20137;-74
2023/05/15 09:27:55;;;;;;;20.77;18.58;;;;;;;20.52;50.31;99998.13;10049138;29;20056;-74
2023/05/15 09:33:00;;;;;;;20.98;18.00;;;;;;;20.70;51.24;100003.06;10046139;29;20052;-74
2023/05/15 09:38:10;;;;;;;21.52;19.33;;;;;;;20.68;50.04;100001.56;10046032;29;20076;-74
2023/05/15 09:43:13;;;;;;;20.13;17.13;;;;;;;20.70;50.23;99999.50;10046405;29;20194;-74
2023/05/15 09:48:16;;;;;;;24.42;18.63;;;;;;;20.92;49.17;99989.34;10046294;29;20062;-74
2023/05/15 09:53:21;;;;;;;22.48;20.08;;;;;;;22.09;46.92;99993.75;10039765;29;20084;-74
2023/05/15 09:58:24;;;;;;;27.77;21.48;;;;;;;20.94;49.69;99990.84;10046382;29;20050;-74
2023/05/15 10:03:27;;;;;;;21.85;19.50;;;;;;;20.79;50.64;99984.69;10046544;29;21262;-74
2023/05/15 10:08:33;;;;;;;15.65;13.85;;;;;;;20.07;50.12;99988.50;10045687;29;20074;-74
2023/05/15 10:13:36;;;;;;;18.15;11.52;;;;;;;21.44;44.70;99977.00;10044888;29;20052;-74
2023/05/15 10:18:41;;;;;;;16.83;12.90;;;;;;;22.74;42.84;99989.31;10042352;29;20053;-73
2023/05/15 10:23:45;;;;;;;39.80;22.05;;;;;;;22.03;44.58;99973.56;10042416;29;20052;-74
2023/05/15 10:28:49;;;;;;;30.63;19.70;;;;;;;22.66;42.22;99981.34;10041527;29;20064;-74
2023/05/15 10:33:55;;;;;;;14.88;12.57;;;;;;;23.13;41.38;99967.53;10039047;29;20045;-74
2023/05/15 10:39:00;;;;;;;16.33;12.38;;;;;;;23.75;40.69;99974.16;10041072;29;20045;-74
2023/05/15 10:44:03;;;;;;;15.57;13.20;;;;;;;24.22;40.29;99966.44;10043985;29;20052;-75
2023/05/15 10:49:06;;;;;;;19.15;13.20;;;;;;;23.68;39.77;99967.88;10053638;29;20128;-75
2023/05/15 10:54:11;;;;;;;19.90;13.55;;;;;;;23.70;39.01;99953.97;10046061;29;20053;-75
2023/05/15 10:59:14;;;;;;;14.50;10.85;;;;;;;23.70;39.08;99948.47;10046374;29;21670;-75
2023/05/15 11:04:18;;;;;;;12.30;11.00;;;;;;;23.98;40.70;99937.94;10049872;29;20064;-75
2023/05/15 11:09:36;;;;;;;14.68;10.68;;;;;;;24.65;38.55;99942.81;10054784;29;20112;-75
2023/05/15 11:14:40;;;;;;;12.35;9.70;;;;;;;24.42;39.07;99940.75;10054440;29;20060;-75
2023/05/15 11:19:57;;;;;;;14.60;12.23;;;;;;;25.02;37.79;99929.09;10052369;29;20055;-75
2023/05/15 11:25:04;;;;;;;19.92;15.95;;;;;;;23.25;41.25;99926.59;10053222;29;20495;-74
2023/05/15 11:30:12;;;;;;;23.00;20.00;;;;;;;20.31;48.28;99941.75;10053792;29;20583;-74
2023/05/15 11:35:20;;;;;;;25.15;21.25;;;;;;;19.52;50.95;99939.09;10051140;29;20124;-75
2023/05/15 11:40:25;;;;;;;31.90;24.65;;;;;;;20.10;50.10;99931.72;10051477;29;20100;-75
2023/05/15 11:45:30;;;;;;;29.67;23.58;;;;;;;20.24;51.91;99931.78;10059753;29;20105;-75
2023/05/15 11:50:35;;;;;;;30.73;23.40;;;;;;;20.93;50.55;99917.34;10049111;29;20501;-75
2023/05/15 11:55:42;;;;;;;33.67;22.65;;;;;;;21.21;50.29;99925.44;10047397;29;20060;-75
2023/05/15 12:00:46;;;;;;;20.27;13.93;;;;;;;22.29;44.16;99936.31;10048563;29;20057;-74
2023/05/15 12:05:50;;;;;;;22.15;18.15;;;;;;;21.80;48.84;99930.25;10050986;29;20067;-75
2023/05/15 12:11:04;;;;;;;21.17;17.95;;;;;;;21.04;51.07;99926.88;10049560;29;20065;-75
2023/05/15 12:16:07;;;;;;;23.95;19.95;;;;;;;21.20;49.76;99916.41;10048844;29;20051;-75
2023/05/15 12:21:10;;;;;;;26.23;20.00;;;;;;;21.28;48.22;99909.91;10047377;29;20724;-75
2023/05/15 12:26:14;;;;;;;20.88;16.88;;;;;;;22.06;45.62;99914.88;10044037;29;20836;-75
2023/05/15 12:31:21;;;;;;;24.45;18.35;;;;;;;23.76;43.07;99903.72;10045863;29;20057;-75
2023/05/15 12:36:24;;;;;;;21.52;17.50;;;;;;;24.86;42.32;99894.84;10047631;29;21292;-75
2023/05/15 12:41:28;;;;;;;19.02;15.93;;;;;;;25.27;40.21;99887.78;10049902;29;20060;-75
2023/05/15 12:46:32;;;;;;;19.35;15.77;;;;;;;25.08;40.75;99890.56;10047543;29;20088;-75
2023/05/15 12:51:42;;;;;;;20.77;15.63;;;;;;;24.92;39.96;99882.94;10051415;29;20106;-75
2023/05/15 12:56:47;;;;;;;18.38;13.80;;;;;;;24.74;40.09;99892.03;10052784;29;20079;-75
2023/05/15 13:01:50;;;;;;;14.55;10.80;;;;;;;23.62;41.23;99884.63;10050655;29;20148;-75
2023/05/15 13:06:53;;;;;;;12.40;10.25;;;;;;;24.61;39.79;99881.22;10052205;29;20053;-75
2023/05/15 13:11:57;;;;;;;11.73;10.52;;;;;;;25.82;37.97;99871.09;10051838;29;20084;-76
2023/05/15 13:17:02;;;;;;;13.02;9.00;;;;;;;25.76;37.31;99881.13;10050951;29;20052;-75
2023/05/15 13:22:05;;;;;;;13.50;11.70;;;;;;;25.71;38.33;99881.00;10050256;29;20064;-75
2023/05/15 13:27:09;;;;;;;13.45;12.05;;;;;;;25.63;39.69;99884.94;10048490;29;20200;-75
2023/05/15 13:32:12;;;;;;;13.00;10.65;;;;;;;25.72;37.12;99882.66;10048822;29;20654;-75
2023/05/15 13:37:15;;;;;;;14.02;9.40;;;;;;;26.26;36.27;99877.13;10049146;29;20059;-75
2023/05/15 13:42:20;;;;;;;11.80;10.20;;;;;;;25.11;36.93;99887.34;10050266;29;20100;-75
2023/05/15 13:47:22;;;;;;;10.15;8.88;;;;;;;25.91;36.78;99879.81;10050408;29;20053;-75
2023/05/15 13:52:26;;;;;;;12.57;10.68;;;;;;;25.54;36.31;99888.25;10049248;29;20659;-75
2023/05/15 13:57:30;;;;;;;11.70;9.65;;;;;;;24.10;39.01;99886.75;10046692;29;21162;-75
2023/05/15 14:02:33;;;;;;;13.18;9.13;;;;;;;23.36;38.61;99891.09;10047989;29;20046;-75
2023/05/15 14:07:35;;;;;;;11.80;8.80;;;;;;;22.97;39.43;99892.16;10048888;29;20201;-75
2023/05/15 14:12:41;;;;;;;12.43;10.60;;;;;;;22.94;39.67;99893.41;10047373;29;20049;-75
2023/05/15 14:17:45;;;;;;;10.68;9.57;;;;;;;24.85;37.71;99887.66;10047481;29;20124;-75
2023/05/15 14:22:48;;;;;;;13.65;10.68;;;;;;;25.87;41.08;99890.47;10046421;29;20081;-75
2023/05/15 14:27:52;;;;;;;15.52;12.35;;;;;;;25.24;43.26;99886.34;10045945;29;20045;-75
2023/05/15 14:32:55;;;;;;;16.08;10.82;;;;;;;25.79;39.60;99882.56;10045385;29;20079;-75
2023/05/15 14:37:58;;;;;;;15.57;11.90;;;;;;;26.07;38.00;99885.47;10051791;29;20601;-75
2023/05/15 14:43:02;;;;;;;15.32;12.27;;;;;;;27.25;36.35;99884.44;10053664;29;20147;-75
2023/05/15 14:48:05;;;;;;;17.33;12.88;;;;;;;26.45;36.18;99892.41;10051970;29;20705;-75
2023/05/15 14:53:08;;;;;;;19.08;12.40;;;;;;;23.81;37.99;99901.19;10053630;29;20060;-75
2023/05/15 14:58:13;;;;;;;8.27;7.43;;;;;;;25.08;35.93;99897.97;10050960;29;20051;-75
2023/05/15 15:03:17;;;;;;;7.22;5.57;;;;;;;26.18;31.55;99900.31;10053132;29;20093;-75
2023/05/15 15:08:20;;;;;;;7.88;7.07;;;;;;;26.73;31.06;99888.88;10055156;29;20536;-75
2023/05/15 15:13:26;;;;;;;10.30;9.10;;;;;;;25.99;33.46;99893.25;10051871;29;20551;-75
2023/05/15 15:18:28;;;;;;;9.20;8.27;;;;;;;26.23;34.34;99888.59;10053794;29;20057;-75
2023/05/15 15:23:31;;;;;;;11.32;9.82;;;;;;;25.52;34.76;99901.38;10053142;29;20053;-75
2023/05/15 15:28:35;;;;;;;12.95;9.95;;;;;;;25.03;36.64;99890.44;10048060;29;20068;-75
2023/05/15 15:33:38;;;;;;;14.35;12.07;;;;;;;23.35;38.36;99896.81;10053880;29;20200;-75
2023/05/15 15:38:42;;;;;;;14.85;11.25;;;;;;;22.19;39.63;99900.31;10050668;29;20087;-75
2023/05/15 15:43:46;;;;;;;13.38;11.38;;;;;;;22.05;40.69;99902.22;10051467;29;20063;-75
2023/05/15 15:48:49;;;;;;;8.07;7.38;;;;;;;23.00;35.59;99892.53;10048136;29;20100;-75
2023/05/15 15:53:52;;;;;;;7.55;6.25;;;;;;;21.99;36.45;99897.63;10050157;29;20078;-75
2023/05/15 15:58:56;;;;;;;7.53;6.82;;;;;;;21.77;37.83;99902.47;10051520;29;20085;-75
2023/05/15 16:03:59;;;;;;;10.57;7.40;;;;;;;21.42;38.72;99903.44;10053869;29;20537;-75
2023/05/15 16:09:03;;;;;;;12.23;8.13;;;;;;;21.00;40.35;99899.91;10049503;29;21267;-75
2023/05/15 16:14:07;;;;;;;11.13;9.60;;;;;;;20.86;41.25;99900.09;10049337;29;20136;-76
2023/05/15 16:19:10;;;;;;;10.05;9.02;;;;;;;22.36;39.91;99903.47;10048934;29;20059;-75
2023/05/15 16:24:13;;;;;;;9.82;8.85;;;;;;;22.62;38.34;99900.69;10048790;29;20057;-75
2023/05/15 16:29:18;;;;;;;12.00;8.93;;;;;;;23.20;37.19;99900.72;10049189;29;20061;-75
2023/05/15 16:34:21;;;;;;;10.88;9.63;;;;;;;23.87;36.72;99912.06;10045280;29;20481;-75
2023/05/15 16:39:25;;;;;;;9.23;8.32;;;;;;;24.42;35.20;99894.09;10047637;29;20041;-74
2023/05/15 16:44:30;;;;;;;12.77;8.57;;;;;;;23.92;36.79;99896.88;10045416;29;20057;-74
2023/05/15 16:49:32;;;;;;;8.32;7.60;;;;;;;25.34;35.09;99886.63;10050590;29;20073;-75
2023/05/15 16:54:35;;;;;;;8.50;7.60;;;;;;;28.22;30.94;99900.78;10044934;29;20607;-75
2023/05/15 16:59:39;;;;;;;9.30;8.40;;;;;;;29.31;28.78;99890.88;10044437;29;20049;-75
2023/05/15 17:04:42;;;;;;;11.65;8.15;;;;;;;26.68;31.11;99896.22;10047805;29;20107;-75
2023/05/15 17:09:45;;;;;;;8.68;7.57;;;;;;;26.62;32.63;99888.94;10049202;29;20145;-75
2023/05/15 17:14:49;;;;;;;9.32;7.65;;;;;;;25.23;33.77;99890.16;10050068;29;20059;-74
2023/05/15 17:19:52;;;;;;;11.88;7.78;;;;;;;23.61;36.57;99904.00;10047111;29;20048;-73
2023/05/15 17:24:55;;;;;;;8.30;7.47;;;;;;;25.56;33.83;99897.06;10045498;29;20041;-74
2023/05/15 17:29:59;;;;;;;10.48;7.63;;;;;;;24.84;34.24;99900.56;10045866;29;20060;-75
2023/05/15 17:35:02;;;;;;;8.25;7.50;;;;;;;21.76;38.48;99918.03;10050674;29;20049;-76
2023/05/15 17:40:06;;;;;;;9.30;8.30;;;;;;;19.96;41.98;99923.59;10048552;29;20081;-76
2023/05/15 17:45:12;;;;;;;9.70;8.02;;;;;;;19.51;43.06;99945.59;10049386;29;20112;-75
2023/05/15 17:50:14;;;;;;;12.93;8.75;;;;;;;19.84;42.72;99950.56;10049465;29;20056;-74
2023/05/15 17:55:17;;;;;;;11.82;9.10;;;;;;;19.53;43.73;99964.44;10046537;29;20591;-75
2023/05/15 18:00:22;;;;;;;12.45;9.05;;;;;;;19.14;44.66;99976.56;10049383;29;20530;-75
2023/05/15 18:05:26;;;;;;;12.32;11.02;;;;;;;18.76;45.29;99973.97;10045415;29;20045;-75
2023/05/15 18:10:29;;;;;;;10.15;9.05;;;;;;;18.61;46.44;99971.22;10043756;29;20501;-75
2023/05/15 18:15:34;;;;;;;14.90;10.85;;;;;;;18.48;46.11;99982.75;10045624;29;20610;-77
2023/05/15 18:20:37;;;;;;;12.70;9.95;;;;;;;18.07;47.14;99998.59;10044280;29;20120;-75
2023/05/15 18:25:40;;;;;;;13.55;9.48;;;;;;;18.13;47.17;100008.75;10047084;29;20457;-76
2023/05/15 18:30:45;;;;;;;14.50;10.43;;;;;;;17.91;47.76;100003.13;10050126;29;20049;-75
2023/05/15 18:35:48;;;;;;;12.70;11.38;;;;;;;17.62;48.03;100013.84;10048942;29;20307;-75
2023/05/15 18:40:52;;;;;;;11.10;9.98;;;;;;;17.44;48.37;100038.53;10049567;29;21117;-76
2023/05/15 18:45:56;;;;;;;9.30;8.40;;;;;;;16.26;52.63;100068.97;10051490;29;20057;-77
2023/05/15 18:50:59;;;;;;;9.23;6.53;;;;;;;14.98;55.75;100116.91;10050570;29;20142;-75
2023/05/15 18:56:02;;;;;;;6.18;4.78;;;;;;;14.09;57.00;100100.78;10043968;29;20088;-75
2023/05/15 19:01:06;;;;;;;6.10;4.97;;;;;;;13.08;63.77;100100.75;10046744;29;20060;-74
2023/05/15 19:06:10;;;;;;;11.80;9.48;;;;;;;11.95;77.30;100122.97;10050559;29;20057;-75
2023/05/15 19:11:13;;;;;;;10.20;8.18;;;;;;;10.72;82.87;100131.06;10049970;29;20052;-76
2023/05/15 19:16:17;;;;;;;12.40;9.35;;;;;;;11.54;82.65;100142.84;10048596;29;20136;-75
2023/05/15 19:21:20;;;;;;;14.13;9.90;;;;;;;11.57;82.80;100146.09;10055460;29;20140;-76
2023/05/15 19:26:23;;;;;;;26.27;13.38;;;;;;;11.61;82.51;100141.31;10052351;29;20053;-76
2023/05/15 19:31:27;;;;;;;19.75;13.15;;;;;;;11.97;82.88;100147.91;10051785;29;20068;-75
2023/05/15 19:36:34;;;;;;;19.27;13.35;;;;;;;12.33;82.25;100149.09;10053471;29;21309;-76
2023/05/15 19:41:36;;;;;;;17.05;13.07;;;;;;;12.14;81.71;100152.59;10047740;29;20060;-76
2023/05/15 19:46:41;;;;;;;21.55;15.65;;;;;;;12.62;82.02;100145.56;10052692;29;21218;-75
2023/05/15 19:51:43;;;;;;;15.70;12.65;;;;;;;12.87;81.32;100137.88;10054221;29;20056;-76
2023/05/15 19:56:46;;;;;;;15.73;12.73;;;;;;;12.96;81.25;100131.59;10051800;29;20053;-76
2023/05/15 20:01:50;;;;;;;16.30;13.38;;;;;;;13.05;80.41;100145.06;10052831;29;20052;-76
2023/05/15 20:06:53;;;;;;;17.85;13.13;;;;;;;13.00;79.81;100159.94;10052388;29;20481;-76
2023/05/15 20:11:56;;;;;;;18.08;12.27;;;;;;;12.96;77.12;100167.47;10049027;29;20064;-76
2023/05/15 20:17:00;;;;;;;14.70;11.85;;;;;;;12.83;73.94;100173.19;10051901;29;20111;-76
2023/05/15 20:22:03;;;;;;;16.08;11.75;;;;;;;12.91;73.95;100188.63;10053527;29;20052;-76
2023/05/15 20:27:06;;;;;;;17.27;12.35;;;;;;;12.80;73.70;100186.09;10047172;29;20064;-76
2023/05/15 20:32:10;;;;;;;14.32;11.50;;;;;;;12.72;72.85;100194.88;10049666;29;20079;-76
2023/05/15 20:37:13;;;;;;;16.67;11.70;;;;;;;12.62;71.75;100212.09;10054142;29;20075;-76
2023/05/15 20:42:16;;;;;;;15.40;12.63;;;;;;;12.37;71.16;100211.63;10078043;29;20045;-77
2023/05/15 20:47:20;;;;;;;16.73;12.95;;;;;;;12.37;71.38;100211.63;10083491;29;20053;-76
2023/05/15 20:52:23;;;;;;;15.30;12.30;;;;;;;12.44;72.52;100218.16;10080942;29;20045;-77
2023/05/15 20:57:26;;;;;;;16.02;12.52;;;;;;;12.09;70.39;100227.53;10081587;29;20097;-76
2023/05/15 21:02:30;;;;;;;18.30;11.82;;;;;;;11.85;70.66;100233.31;10085648;29;20044;-76
2023/05/15 21:07:33;;;;;;;17.38;13.00;;;;;;;11.92;70.50;100231.75;10085475;29;20059;-77
2023/05/15 21:12:36;;;;;;;16.92;13.57;;;;;;;12.18;72.50;100242.03;10087007;29;20131;-77
2023/05/15 21:17:40;;;;;;;15.57;13.15;;;;;;;11.86;69.77;100244.91;10083653;29;20139;-77
2023/05/15 21:22:43;;;;;;;17.85;13.45;;;;;;;12.08;71.36;100257.31;10084349;29;20053;-77
2023/05/15 21:27:45;;;;;;;20.75;12.77;;;;;;;12.04;69.88;100259.44;10084059;29;20140;-77
2023/05/15 21:32:49;;;;;;;17.15;12.43;;;;;;;12.07;70.11;100259.16;10085971;29;20068;-77
2023/05/15 21:37:52;;;;;;;16.92;12.65;;;;;;;12.22;70.19;100258.78;10085668;29;20065;-76
2023/05/15 21:42:55;;;;;;;15.77;11.60;;;;;;;11.98;68.40;100267.19;10085516;29;20084;-77
2023/05/15 21:48:00;;;;;;;17.63;14.02;;;;;;;11.97;68.93;100266.34;10085589;29;20073;-77
2023/05/15 21:53:03;;;;;;;20.77;12.90;;;;;;;12.24;69.39;100263.03;10083183;29;20048;-77
2023/05/15 21:58:06;;;;;;;17.73;14.45;;;;;;;12.08;68.22;100263.53;10084700;29;20104;-77
2023/05/15 22:03:10;;;;;;;23.33;13.93;;;;;;;12.19;68.58;100259.06;10085580;29;20136;-77
2023/05/15 22:08:13;;;;;;;20.80;14.80;;;;;;;11.70;68.99;100257.03;10085272;29;20060;-77
2023/05/15 22:13:16;;;;;;;17.33;14.18;;;;;;;11.85;68.61;100270.13;10084845;29;20132;-77
2023/05/15 22:18:20;;;;;;;20.98;15.55;;;;;;;11.80;68.32;100269.69;10083026;29;20045;-77
2023/05/15 22:23:23;;;;;;;20.02;15.30;;;;;;;11.13;70.21;100265.63;10082831;29;20069;-77
2023/05/15 22:28:25;;;;;;;19.98;14.35;;;;;;;11.96;69.47;100264.66;10082514;29;20509;-76
2023/05/15 22:33:30;;;;;;;27.33;15.23;;;;;;;11.73;69.18;100272.91;10084101;29;20069;-76
2023/05/15 22:38:32;;;;;;;20.73;15.48;;;;;;;11.97;68.93;100271.72;10086224;29;20057;-77
2023/05/15 22:43:35;;;;;;;21.00;14.57;;;;;;;11.88;68.29;100283.31;10083178;29;20087;-77
2023/05/15 22:48:40;;;;;;;22.80;14.10;;;;;;;11.96;67.59;100288.88;10082579;29;20041;-76
2023/05/15 22:53:43;;;;;;;20.30;14.02;;;;;;;11.91;68.46;100293.81;10081958;29;20128;-76
2023/05/15 22:58:46;;;;;;;20.40;13.27;;;;;;;11.67;67.24;100297.66;10085786;29;20041;-76